Time;durP1;ratioP1;P1;durP2;ratioP2;P2;SDS_P1;SDS_P2;PMS_P1;PMS_P2;Temp;Humidity;BMP_temperature;BMP_pressure;BME280_temperature;BME280_humidity;BME280_pressure;Samples;Min_cycle;Max_cycle;Signal;HPM_P1;HPM_P2
2021/08/09 00:03:03;;;;;;;;;;;16.10;99.90;;;15.01;85.92;95996.72;10285329;28;2302;-78
2021/08/09 00:08:06;;;;;;;;;;;16.10;99.90;;;14.85;86.26;95992.66;10273860;28;2388;-80
2021/08/09 00:13:08;;;;;;;;;;;16.00;99.90;;;14.75;86.76;95992.81;10280724;28;2377;-80
2021/08/09 00:18:11;;;;;;;;;;;15.80;99.90;;;14.69;87.51;96002.13;10292374;28;2203;-81
2021/08/09 00:23:14;;;;;;;;;;;15.80;99.90;;;14.67;87.75;95997.00;10320741;28;2318;-82
2021/08/09 00:28:17;;;;;;;;;;;15.80;99.90;;;14.53;87.93;95996.13;10320354;28;1362;-79
2021/08/09 00:33:19;;;;;;;;;;;15.70;99.90;;;14.44;88.52;95997.84;10317684;28;2481;-81
2021/08/09 00:38:22;;;;;;;;;;;15.60;99.90;;;14.23;89.17;95991.94;10325783;28;2368;-81
2021/08/09 00:43:25;;;;;;;;;;;15.40;99.90;;;14.11;90.58;95994.25;10324220;28;1356;-79
2021/08/09 00:48:27;;;;;;;;;;;15.30;99.90;;;14.05;91.06;95991.59;10279469;28;2347;-79
2021/08/09 00:53:30;;;;;;;;;;;15.20;99.90;;;13.95;92.04;95991.75;10274599;28;2376;-80
2021/08/09 00:58:33;;;;;;;;;;;15.10;99.90;;;13.81;93.49;95990.84;10274400;28;2207;-80
2021/08/09 01:03:36;;;;;;;;;;;15.00;99.90;;;13.81;94.66;95996.25;10287600;28;2389;-79
2021/08/09 01:08:38;;;;;;;;;;;15.00;99.90;;;13.79;94.72;95979.50;10287073;28;2348;-79
2021/08/09 01:13:41;;;;;;;;;;;14.90;99.90;;;13.67;94.73;95973.72;10295657;28;2258;-81
2021/08/09 01:18:44;;;;;;;;;;;14.90;99.90;;;13.58;95.50;95973.53;10294888;28;2325;-79
2021/08/09 01:24:07;;;;;;;;;;;14.80;99.90;;;13.45;95.37;95976.94;10307762;28;2882;-79
2021/08/09 01:29:09;;;;;;;;;;;14.70;99.90;;;13.29;96.13;95984.38;10312114;28;2372;-79
2021/08/09 01:34:13;;;;;;;;;;;14.50;99.90;;;13.24;97.95;95984.44;10293740;28;2241;-79
2021/08/09 01:39:15;;;;;;;;;;;14.40;99.90;;;13.28;98.26;95971.97;10290967;28;2300;-79
2021/08/09 01:44:18;;;;;;;;;;;14.40;99.90;;;13.34;97.72;95970.03;10288297;28;2242;-79
2021/08/09 01:49:21;;;;;;;;;;;14.40;99.90;;;13.50;98.23;95985.78;10286288;28;2295;-79
2021/08/09 01:54:23;;;;;;;;;;;14.50;99.90;;;13.81;96.29;95979.25;10288553;28;2290;-78
2021/08/09 01:59:26;;;;;;;;;;;14.60;99.90;;;13.98;95.21;95969.53;10287380;28;2246;-81
2021/08/09 02:04:29;;;;;;;;;;;14.80;99.90;;;14.11;94.68;95980.72;10283099;28;2337;-81
2021/08/09 02:09:32;;;;;;;;;;;14.90;99.90;;;14.19;94.32;95977.41;10278855;28;2293;-80
2021/08/09 02:14:34;;;;;;;;;;;15.00;99.90;;;14.23;93.78;95981.13;10283683;28;2290;-79
2021/08/09 02:19:37;;;;;;;;;;;15.20;99.90;;;14.24;93.80;95974.59;10272635;28;2009;-77
2021/08/09 02:24:40;;;;;;;;;;;15.20;99.90;;;14.13;94.17;95968.56;10280595;28;2421;-80
2021/08/09 02:29:43;;;;;;;;;;;15.20;99.90;;;13.97;94.41;95962.53;10318417;28;2368;-80
2021/08/09 02:34:45;;;;;;;;;;;15.10;99.90;;;13.82;95.35;95970.03;10314071;28;2261;-79
2021/08/09 02:39:48;;;;;;;;;;;15.00;99.90;;;13.67;96.74;95976.41;10276313;28;2254;-79
2021/08/09 02:44:51;;;;;;;;;;;14.80;99.90;;;13.60;96.73;95978.66;10295485;28;2337;-79
2021/08/09 02:49:54;;;;;;;;;;;14.70;99.90;;;13.50;97.43;95972.28;10273635;28;2563;-80
2021/08/09 02:54:56;;;;;;;;;;;14.60;99.90;;;13.45;97.84;95968.84;10287190;28;2409;-81
2021/08/09 02:59:59;;;;;;;;;;;14.60;99.90;;;13.44;98.11;95973.44;10308653;28;2420;-79
2021/08/09 03:05:02;;;;;;;;;;;14.50;99.90;;;13.62;97.42;95965.69;10321414;28;2473;-77
2021/08/09 03:10:05;;;;;;;;;;;14.50;99.90;;;13.68;96.20;95965.34;10293804;28;1933;-81
2021/08/09 03:15:07;;;;;;;;;;;14.60;99.90;;;13.87;96.00;95978.91;10287189;28;2555;-79
2021/08/09 03:20:10;;;;;;;;;;;14.70;99.90;;;13.98;95.02;95982.25;10279968;28;2562;-79
2021/08/09 03:25:13;;;;;;;;;;;14.90;99.90;;;14.10;93.97;95979.13;10280370;28;2582;-80
2021/08/09 03:30:17;;;;;;;;;;;14.90;99.90;;;14.18;93.95;95981.19;10286043;28;2203;-80
2021/08/09 03:35:19;;;;;;;;;;;15.10;99.90;;;14.25;92.44;95985.16;10278885;28;2649;-78
2021/08/09 03:40:22;;;;;;;;;;;15.10;99.90;;;14.23;92.65;95983.81;10276294;28;2562;-79
2021/08/09 03:45:25;;;;;;;;;;;15.10;99.90;;;14.26;92.08;95999.47;10291355;28;2518;-79
2021/08/09 03:50:28;;;;;;;;;;;15.20;99.90;;;14.23;91.80;95994.63;10281222;28;2779;-79
2021/08/09 03:55:31;;;;;;;;;;;15.20;99.90;;;14.16;91.71;96002.31;10289712;28;2645;-78
2021/08/09 04:00:35;;;;;;;;;;;15.20;99.90;;;14.05;92.34;95996.22;10263744;28;2562;-80
2021/08/09 04:05:37;;;;;;;;;;;15.10;99.90;;;13.91;93.21;95985.31;10270297;28;2568;-80
2021/08/09 04:10:40;;;;;;;;;;;15.00;99.90;;;13.84;94.17;95974.06;10285059;28;2641;-79
2021/08/09 04:16:01;;;;;;;;;;;14.90;99.90;;;13.78;93.56;95991.41;10274937;28;2314;-79
2021/08/09 04:21:16;;;;;;;;;;;14.80;99.90;;;13.62;94.35;95990.00;10287126;28;2273;-81
2021/08/09 04:26:19;;;;;;;;;;;14.70;99.90;;;13.61;94.61;95994.56;10275204;28;2389;-81
2021/08/09 04:31:22;;;;;;;;;;;14.70;99.90;;;13.70;95.39;95994.75;10295849;28;2257;-81
2021/08/09 04:36:25;;;;;;;;;;;14.70;99.90;;;13.69;94.54;95998.56;10282175;28;2745;-80
2021/08/09 04:41:27;;;;;;;;;;;14.70;99.90;;;13.81;94.62;95996.25;10276320;28;2320;-80
2021/08/09 04:46:30;;;;;;;;;;;14.70;99.90;;;13.84;95.41;96000.28;10279390;28;2349;-81
2021/08/09 04:51:33;;;;;;;;;;;14.70;99.90;;;14.10;94.17;96001.56;10288686;28;2520;-80
2021/08/09 04:56:36;;;;;;;;;;;14.80;99.90;;;14.64;92.21;95996.81;10298006;28;2670;-80
2021/08/09 05:01:38;;;;;;;;;;;15.10;99.90;;;15.41;87.51;95992.53;10296762;28;2311;-79
2021/08/09 05:06:42;;;;;;;;;;;15.60;99.90;;;15.83;84.52;95992.56;10298169;28;2310;-79
2021/08/09 05:11:44;;;;;;;;;;;16.00;99.90;;;16.42;80.89;95997.03;10304689;28;2287;-79
2021/08/09 05:16:47;;;;;;;;;;;16.50;99.90;;;17.08;77.80;96002.84;10293730;28;2329;-78
2021/08/09 05:21:50;;;;;;;;;;;17.00;99.90;;;17.32;75.61;96015.31;10285555;28;2340;-80
2021/08/09 05:26:55;;;;;;;;;;;17.50;99.90;;;17.68;74.21;96013.25;10282331;28;2741;-83
2021/08/09 05:31:58;;;;;;;;;;;17.80;99.90;;;17.92;74.13;96014.84;10294636;28;2334;-82
2021/08/09 05:37:01;;;;;;;;;;;18.00;99.90;;;18.65;70.33;96005.09;10291237;28;2239;-82
2021/08/09 05:42:03;;;;;;;;;;;18.60;99.90;;;18.56;69.99;96017.88;10311648;28;2264;-79
2021/08/09 05:47:06;;;;;;;;;;;18.90;99.90;;;18.46;70.34;96018.22;10287079;28;2329;-81
2021/08/09 05:52:09;;;;;;;;;;;18.90;99.90;;;18.27;70.59;96005.69;10304562;28;2247;-79
2021/08/09 05:57:11;;;;;;;;;;;18.90;99.90;;;18.35;70.09;96007.59;10291454;28;2333;-80
2021/08/09 06:02:14;;;;;;;;;;;18.90;99.90;;;18.43;71.58;96018.81;10284181;28;2387;-81
2021/08/09 06:07:17;;;;;;;;;;;18.90;99.90;;;19.25;65.35;96017.91;10301995;28;2388;-78
2021/08/09 06:12:20;;;;;;;;;;;19.30;99.90;;;19.83;63.11;96005.59;10301834;28;2278;-79
2021/08/09 06:17:23;;;;;;;;;;;19.90;99.90;;;20.03;61.61;95992.34;10312806;28;2273;-79
2021/08/09 06:22:26;;;;;;;;;;;20.40;99.90;;;19.65;61.83;95993.16;10300222;28;2206;-80
2021/08/09 06:27:28;;;;;;;;;;;20.40;99.90;;;19.68;60.28;95997.97;10298674;28;2376;-78
2021/08/09 06:32:31;;;;;;;;;;;20.20;99.90;;;19.31;60.69;96000.28;10284004;28;2304;-77
2021/08/09 06:37:35;;;;;;;;;;;20.10;99.90;;;19.80;60.82;96000.00;10287173;28;2313;-80
2021/08/09 06:42:38;;;;;;;;;;;20.30;99.90;;;19.68;60.35;96003.41;10291093;28;1936;-79
2021/08/09 06:47:42;;;;;;;;;;;20.50;99.90;;;20.42;58.50;96016.56;10293575;28;2353;-79
2021/08/09 06:52:45;;;;;;;;;;;20.80;99.90;;;19.76;57.75;96009.97;10293599;28;2369;-79
2021/08/09 06:57:47;;;;;;;;;;;20.60;99.90;;;19.47;58.95;96013.38;10303373;28;2533;-79
2021/08/09 07:02:50;;;;;;;;;;;20.30;99.90;;;19.74;57.44;95996.66;10296468;28;2123;-79
2021/08/09 07:07:53;;;;;;;;;;;20.40;99.90;;;19.74;57.91;95984.94;10289499;28;2396;-79
2021/08/09 07:12:56;;;;;;;;;;;20.50;99.90;;;19.96;55.97;95993.66;10275969;28;2274;-79
2021/08/09 07:17:59;;;;;;;;;;;20.70;99.90;;;20.48;56.29;95993.41;10288955;28;2346;-78
2021/08/09 07:23:02;;;;;;;;;;;20.90;99.90;;;20.43;55.72;95998.25;10306516;28;2339;-79
2021/08/09 07:28:05;;;;;;;;;;;21.10;99.90;;;20.64;57.57;96001.81;10279986;28;2686;-78
2021/08/09 07:33:08;;;;;;;;;;;21.30;99.90;;;20.54;53.86;96009.59;10286708;28;2184;-78
2021/08/09 07:38:11;;;;;;;;;;;21.50;99.90;;;20.64;53.90;96009.22;10283744;28;2189;-79
2021/08/09 07:43:14;;;;;;;;;;;21.40;99.90;;;20.45;54.49;96013.19;10293055;28;2333;-79
2021/08/09 07:48:17;;;;;;;;;;;21.60;99.90;;;20.71;54.71;96004.00;10299439;28;2012;-78
2021/08/09 07:53:19;;;;;;;;;;;21.50;99.90;;;20.83;54.09;96011.47;10288738;28;2460;-78
2021/08/09 07:58:22;;;;;;;;;;;21.40;99.90;;;20.69;54.05;96014.47;10286278;28;2396;-77
2021/08/09 08:03:28;;;;;;;;;;;21.60;99.90;;;21.33;54.22;96003.19;10276955;28;2338;-78
2021/08/09 08:08:31;;;;;;;;;;;21.80;99.90;;;21.41;52.68;95996.03;10276473;28;2343;-78
2021/08/09 08:13:34;;;;;;;;;;;22.10;99.90;;;21.08;54.06;96004.22;10297953;28;2382;-78
2021/08/09 08:18:37;;;;;;;;;;;22.10;99.90;;;20.95;54.70;96006.88;10283536;28;2280;-78
2021/08/09 08:23:39;;;;;;;;;;;21.90;99.90;;;20.81;53.19;96002.84;10290658;28;2336;-79
2021/08/09 08:28:42;;;;;;;;;;;21.80;99.90;;;21.07;54.13;95997.94;10287247;28;2457;-77
2021/08/09 08:33:45;;;;;;;;;;;21.80;99.90;;;21.61;53.25;95999.84;10276235;28;2560;-77
2021/08/09 08:38:47;;;;;;;;;;;22.10;99.90;;;21.31;52.07;95999.97;10271922;28;2456;-79
2021/08/09 08:43:53;;;;;;;;;;;22.30;99.90;;;21.46;52.40;96004.03;10283580;28;2253;-78
2021/08/09 08:48:57;;;;;;;;;;;22.20;99.90;;;20.87;53.19;96010.50;10278722;28;2349;-77
2021/08/09 08:54:00;;;;;;;;;;;22.10;99.90;;;21.50;52.95;95999.47;10275047;28;2500;-79
2021/08/09 08:59:03;;;;;;;;;;;22.20;99.90;;;21.62;52.08;96004.19;10283009;28;2387;-78
2021/08/09 09:04:06;;;;;;;;;;;22.40;99.90;;;21.50;52.11;96008.50;10258625;28;2641;-76
2021/08/09 09:09:08;;;;;;;;;;;22.30;99.90;;;21.46;52.24;96010.31;10261421;28;2376;-78
2021/08/09 09:14:11;;;;;;;;;;;22.40;99.90;;;20.83;52.12;96023.22;10280944;28;2415;-77
2021/08/09 09:19:14;;;;;;;;;;;21.90;99.90;;;21.59;52.35;96009.19;10277312;28;2396;-79
2021/08/09 09:24:17;;;;;;;;;;;;;;;21.70;51.28;96020.50;10275786;28;2421;-79
2021/08/09 09:29:20;;;;;;;;;;;22.30;99.90;;;21.56;51.82;96009.84;10273744;28;2750;-77
2021/08/09 09:34:23;;;;;;;;;;;22.40;99.90;;;21.75;50.03;96019.47;10268525;28;2358;-76
2021/08/09 09:39:26;;;;;;;;;;;22.50;99.90;;;22.26;49.37;96014.53;10267302;28;2343;-80
2021/08/09 09:44:29;;;;;;;;;;;22.80;99.90;;;22.07;51.34;96002.19;10276830;28;2343;-77
2021/08/09 09:49:32;;;;;;;;;;;23.00;99.90;;;22.01;50.64;96009.03;10270017;28;2471;-78
2021/08/09 09:54:35;;;;;;;;;;;23.00;99.90;;;21.65;51.84;96015.25;10275837;28;2444;-77
2021/08/09 09:59:38;;;;;;;;;;;22.80;99.90;;;22.26;49.38;96009.84;10278495;28;2365;-77
2021/08/09 10:04:40;;;;;;;;;;;22.90;99.90;;;22.09;50.49;96005.41;10279379;28;2503;-77
2021/08/09 10:09:43;;;;;;;;;;;23.10;99.90;;;22.45;49.56;96017.50;10291035;28;2789;-79
2021/08/09 10:14:46;;;;;;;;;;;23.20;99.90;;;22.66;46.56;96012.69;10299753;28;2435;-78
2021/08/09 10:19:49;;;;;;;;;;;23.30;99.90;;;23.75;46.08;96007.16;10303008;28;2332;-77
2021/08/09 10:24:55;;;;;;;;;;;23.80;99.90;;;24.12;42.12;95999.47;10302609;28;2348;-76
2021/08/09 10:29:57;;;;;;;;;;;24.40;99.90;;;23.25;45.76;95999.50;10314747;28;2420;-78
2021/08/09 10:35:00;;;;;;;;;;;24.40;99.90;;;23.18;45.52;95998.16;10271274;28;2285;-78
2021/08/09 10:40:03;;;;;;;;;;;24.10;99.90;;;24.19;43.14;95987.88;10280104;28;2386;-78
2021/08/09 10:45:06;;;;;;;;;;;24.50;99.90;;;24.43;41.89;95986.88;10275592;28;2302;-78
2021/08/09 10:50:09;;;;;;;;;;;25.10;99.90;;;23.83;41.61;95983.44;10283335;28;2348;-80
2021/08/09 10:55:11;;;;;;;;;;;25.00;99.90;;;23.50;41.25;95979.03;10286717;28;2360;-81
2021/08/09 11:00:14;;;;;;;;;;;24.80;99.90;;;23.34;43.88;95992.72;10299303;28;2750;-81
2021/08/09 11:05:17;;;;;;;;;;;24.60;99.90;;;23.16;44.17;95992.25;10306364;28;2357;-79
2021/08/09 11:10:20;;;;;;;;;;;24.40;99.90;;;23.66;42.70;95977.13;10297718;28;2433;-80
2021/08/09 11:15:23;;;;;;;;;;;24.70;99.90;;;24.68;42.41;95977.22;10310641;28;2350;-80
2021/08/09 11:20:25;;;;;;;;;;;25.70;99.90;;;24.75;41.19;95966.41;10301625;28;2349;-81
2021/08/09 11:25:28;;;;;;;;;;;26.10;99.90;;;23.66;42.50;95976.34;10300870;28;2239;-80
2021/08/09 11:30:31;;;;;;;;;;;25.30;99.90;;;23.81;44.00;95980.25;10311596;28;2269;-79
2021/08/09 11:35:34;;;;;;;;;;;25.00;99.90;;;22.73;44.35;95973.72;10311403;28;1929;-80
2021/08/09 11:40:36;;;;;;;;;;;24.20;99.90;;;22.99;43.89;95975.28;10302578;28;2206;-80
2021/08/09 11:45:39;;;;;;;;;;;24.10;99.90;;;22.89;44.13;95976.56;10306347;28;2234;-79
2021/08/09 11:50:42;;;;;;;;;;;24.00;99.90;;;22.63;45.50;95968.72;10312481;28;2207;-79
2021/08/09 11:55:45;;;;;;;;;;;23.70;99.90;;;22.46;44.95;95969.81;10316932;28;2336;-78
2021/08/09 12:00:48;;;;;;;;;;;23.60;99.90;;;22.46;45.67;95961.59;10310700;28;2329;-79
2021/08/09 12:05:51;;;;;;;;;;;23.40;99.90;;;23.11;46.30;95973.28;10299719;28;2215;-80
2021/08/09 12:10:54;;;;;;;;;;;23.80;99.90;;;22.88;45.40;95972.22;10314249;28;2330;-81
2021/08/09 12:15:57;;;;;;;;;;;24.00;99.90;;;22.95;44.42;95985.34;10323269;28;2543;-79
2021/08/09 12:21:01;;;;;;;;;;;24.00;99.90;;;22.67;44.73;95975.91;10317040;28;2226;-80
2021/08/09 12:26:04;;;;;;;;;;;23.70;99.90;;;23.20;44.72;95982.16;10305915;28;2088;-80
2021/08/09 12:31:08;;;;;;;;;;;23.80;99.90;;;23.20;44.63;95976.66;10288983;28;2298;-81
2021/08/09 12:36:12;;;;;;;;;;;24.20;99.90;;;23.66;43.42;95976.34;10295589;28;2321;-81
2021/08/09 12:41:15;;;;;;;;;;;24.40;99.90;;;24.21;41.10;95966.31;10303320;28;2353;-81
2021/08/09 12:46:21;;;;;;;;;;;24.70;99.90;;;24.00;42.71;95961.94;10282641;28;2007;-82
2021/08/09 12:51:24;;;;;;;;;;;25.00;99.90;;;24.02;41.45;95969.00;10304694;28;2378;-80
2021/08/09 12:56:27;;;;;;;;;;;24.90;99.90;;;24.07;40.81;95968.75;10298234;28;2426;-77
2021/08/09 13:01:30;;;;;;;;;;;25.00;99.90;;;23.93;39.99;95959.00;10311031;28;1933;-78
2021/08/09 13:06:33;;;;;;;;;;;24.90;99.90;;;24.15;39.54;95949.31;10301997;28;2325;-77
2021/08/09 13:11:36;;;;;;;;;;;25.10;99.90;;;23.66;41.02;95959.88;10303667;28;2719;-78
2021/08/09 13:16:38;;;;;;;;;;;25.00;99.90;;;23.29;41.75;95954.59;10313137;28;2243;-79
2021/08/09 13:21:41;;;;;;;;;;;24.50;99.90;;;23.51;41.28;95953.19;10308128;28;2443;-78
2021/08/09 13:26:45;;;;;;;;;;;24.50;99.90;;;23.70;40.85;95942.34;10306658;28;2564;-79
2021/08/09 13:31:48;;;;;;;;;;;24.60;99.90;;;24.39;39.06;95945.59;10300123;28;2138;-79
2021/08/09 13:36:54;;;;;;;;;;;25.00;99.90;;;24.62;38.30;95933.91;10292616;28;2340;-78
2021/08/09 13:41:56;;;;;;;;;;;25.20;99.90;;;23.58;40.98;95931.44;10309717;28;2389;-77
2021/08/09 13:46:59;;;;;;;;;;;25.00;99.90;;;23.85;41.93;95924.28;10290520;28;1957;-78
2021/08/09 13:52:02;;;;;;;;;;;24.70;99.90;;;23.67;43.09;95923.88;10297431;28;2225;-79
2021/08/09 13:57:05;;;;;;;;;;;24.60;99.90;;;23.32;41.46;95928.41;10287860;28;2396;-81
2021/08/09 14:02:07;;;;;;;;;;;24.40;99.90;;;23.30;41.69;95930.69;10292033;28;2354;-80
2021/08/09 14:07:10;;;;;;;;;;;24.30;99.90;;;24.00;40.83;95939.16;10294215;28;2358;-80
2021/08/09 14:12:13;;;;;;;;;;;24.50;99.90;;;24.20;39.66;95943.56;10296011;28;2401;-79
2021/08/09 14:17:16;;;;;;;;;;;24.80;99.90;;;24.47;39.38;95944.59;10301247;28;2326;-77
2021/08/09 14:22:19;;;;;;;;;;;25.00;99.90;;;24.81;38.24;95944.91;10298843;28;2365;-79
2021/08/09 14:27:22;;;;;;;;;;;25.30;98.90;;;25.17;36.39;95942.91;10309943;28;2289;-77
2021/08/09 14:32:24;;;;;;;;;;;25.70;96.80;;;25.05;37.37;95933.66;10299923;28;2231;-78
2021/08/09 14:37:27;;;;;;;;;;;25.60;96.50;;;25.31;36.74;95938.47;10289875;28;2329;-77
2021/08/09 14:42:30;;;;;;;;;;;25.90;96.00;;;25.76;36.30;95942.44;10290001;28;2241;-76
2021/08/09 14:47:33;;;;;;;;;;;26.10;96.10;;;25.48;37.60;95939.19;10303293;28;2309;-80
2021/08/09 14:52:36;;;;;;;;;;;26.20;96.20;;;25.29;38.50;95924.28;10316536;28;2302;-77
2021/08/09 14:57:38;;;;;;;;;;;26.20;96.80;;;24.96;39.16;95926.78;10316499;28;1976;-78
2021/08/09 15:02:41;;;;;;;;;;;26.00;96.80;;;24.38;39.72;95932.22;10317235;28;2192;-80
2021/08/09 15:07:45;;;;;;;;;;;25.80;95.90;;;24.35;40.16;95936.47;10314424;28;1921;-80
2021/08/09 15:12:50;;;;;;;;;;;25.50;96.90;;;24.28;40.74;95942.56;10320238;28;1987;-79
2021/08/09 15:17:54;;;;;;;;;;;25.20;98.20;;;24.31;40.87;95929.28;10323368;28;2274;-78
2021/08/09 15:22:56;;;;;;;;;;;25.10;98.20;;;23.92;41.15;95931.88;10333962;28;1944;-78
2021/08/09 15:27:59;;;;;;;;;;;24.90;98.20;;;24.37;40.52;95949.88;10325865;28;1536;-79
2021/08/09 15:33:02;;;;;;;;;;;24.90;98.90;;;24.52;39.72;95951.75;10312848;28;2428;-77
2021/08/09 15:38:05;;;;;;;;;;;25.00;97.80;;;24.62;38.38;95969.63;10308779;28;2440;-79
2021/08/09 15:43:09;;;;;;;;;;;25.20;96.40;;;25.01;38.64;95957.53;10309371;28;1885;-79
2021/08/09 15:48:12;;;;;;;;;;;25.40;96.50;;;24.69;38.90;95956.88;10319027;28;2263;-80
2021/08/09 15:53:14;;;;;;;;;;;25.40;95.80;;;24.73;39.15;95957.72;10336694;28;2258;-80
2021/08/09 15:58:17;;;;;;;;;;;25.40;96.10;;;24.38;40.51;95973.44;10304054;28;2259;-79
2021/08/09 16:03:20;;;;;;;;;;;25.30;97.20;;;24.19;40.16;95972.19;10308145;28;2342;-79
2021/08/09 16:08:23;;;;;;;;;;;25.00;96.30;;;24.14;40.82;95958.72;10317167;28;2242;-78
2021/08/09 16:13:25;;;;;;;;;;;24.90;97.30;;;24.03;41.02;95965.91;10309249;28;2318;-79
2021/08/09 16:18:28;;;;;;;;;;;24.80;97.60;;;23.89;42.20;95960.88;10289261;28;2461;-78
2021/08/09 16:23:31;;;;;;;;;;;24.70;98.60;;;23.88;41.81;95944.75;10277646;28;2283;-79
2021/08/09 16:28:33;;;;;;;;;;;24.70;98.50;;;23.70;42.28;95947.06;10286764;28;2305;-77
2021/08/09 16:33:36;;;;;;;;;;;24.50;98.70;;;23.20;44.63;95954.72;10277869;28;2353;-75
2021/08/09 16:38:39;;;;;;;;;;;24.30;99.90;;;23.03;44.99;95963.28;10275606;28;2483;-80
2021/08/09 16:43:42;;;;;;;;;;;24.10;99.90;;;22.98;44.95;95962.72;10298160;28;2300;-80
2021/08/09 16:48:45;;;;;;;;;;;23.90;99.90;;;22.65;46.01;95955.50;10313175;28;2349;-81
2021/08/09 16:53:47;;;;;;;;;;;23.70;99.90;;;22.48;46.47;95950.28;10316125;28;2504;-81
2021/08/09 16:58:50;;;;;;;;;;;23.50;99.90;;;22.33;47.65;95949.03;10302389;28;1995;-80
2021/08/09 17:03:53;;;;;;;;;;;23.40;99.90;;;22.43;47.04;95954.03;10311992;28;2340;-80
2021/08/09 17:08:56;;;;;;;;;;;23.20;99.90;;;22.47;47.61;95970.59;10325395;28;2384;-79
2021/08/09 17:13:59;;;;;;;;;;;23.30;99.90;;;22.59;48.21;95965.91;10306335;28;2343;-80
2021/08/09 17:19:02;;;;;;;;;;;23.40;99.90;;;22.59;48.59;95967.84;10319379;28;2237;-81
2021/08/09 17:24:08;;;;;;;;;;;23.40;99.90;;;22.47;49.78;95965.91;10311037;28;2459;-78
2021/08/09 17:29:28;;;;;;;;;;;23.40;99.90;;;22.67;49.23;95969.63;10317824;28;2296;-80
2021/08/09 17:34:31;;;;;;;;;;;23.40;99.90;;;22.57;49.97;95981.88;10298784;28;2000;-80
2021/08/09 17:39:34;;;;;;;;;;;23.50;99.90;;;22.38;49.27;95984.41;10305130;28;2316;-79
2021/08/09 17:44:37;;;;;;;;;;;23.30;99.90;;;22.03;50.59;95979.38;10301062;28;2409;-81
2021/08/09 17:49:40;;;;;;;;;;;23.00;99.90;;;21.66;51.30;95978.53;10292120;28;2185;-81
2021/08/09 17:54:43;;;;;;;;;;;22.80;99.90;;;21.47;50.83;95975.53;10323061;28;2500;-80
2021/08/09 17:59:46;;;;;;;;;;;22.50;99.90;;;21.29;50.94;95977.66;10308332;28;1727;-79
2021/08/09 18:04:48;;;;;;;;;;;22.30;99.90;;;21.19;53.08;95983.53;10303171;28;2404;-81
2021/08/09 18:09:51;;;;;;;;;;;22.20;99.90;;;21.07;51.90;95978.81;10291735;28;2369;-81
2021/08/09 18:14:54;;;;;;;;;;;22.10;99.90;;;20.91;53.66;95972.34;10304500;28;2270;-80
2021/08/09 18:19:57;;;;;;;;;;;22.00;99.90;;;20.71;53.51;95963.03;10301858;28;2190;-82
2021/08/09 18:25:01;;;;;;;;;;;21.80;99.90;;;20.50;54.33;95965.78;10325082;28;2211;-80
2021/08/09 18:30:04;;;;;;;;;;;21.60;99.90;;;20.24;55.72;95982.31;10291310;28;2380;-79
2021/08/09 18:35:06;;;;;;;;;;;21.40;99.90;;;19.97;56.61;95973.44;10298329;28;2310;-79
2021/08/09 18:40:09;;;;;;;;;;;21.20;99.90;;;19.80;57.46;95989.91;10294240;28;2250;-80
2021/08/09 18:45:12;;;;;;;;;;;21.00;99.90;;;19.56;58.52;95989.63;10281546;28;2258;-81
2021/08/09 18:50:15;;;;;;;;;;;20.80;99.90;;;19.40;59.11;95990.16;10298513;28;2293;-81
2021/08/09 18:55:17;;;;;;;;;;;20.60;99.90;;;19.28;60.16;96000.13;10283944;28;2355;-81
2021/08/09 19:00:20;;;;;;;;;;;20.40;99.90;;;19.13;60.98;96006.88;10295659;28;2326;-82
2021/08/09 19:05:23;;;;;;;;;;;20.30;99.90;;;19.08;61.42;96001.56;10289198;28;2234;-80
2021/08/09 19:10:27;;;;;;;;;;;20.20;99.90;;;18.96;62.51;96009.59;10300420;28;2269;-80
2021/08/09 19:15:29;;;;;;;;;;;20.10;99.90;;;18.88;62.85;96014.72;10309864;28;2306;-80
2021/08/09 19:20:32;;;;;;;;;;;20.00;99.90;;;18.82;63.68;96016.00;10313012;28;2110;-79
2021/08/09 19:25:35;;;;;;;;;;;19.90;99.90;;;18.76;64.24;96009.13;10293585;28;2697;-79
2021/08/09 19:30:38;;;;;;;;;;;19.90;99.90;;;18.67;64.71;96012.97;10306179;28;2389;-79
2021/08/09 19:35:40;;;;;;;;;;;19.70;99.90;;;18.55;65.36;96016.28;10311166;28;2412;-78
2021/08/09 19:40:43;;;;;;;;;;;19.70;99.90;;;18.53;66.35;96007.66;10312141;28;2341;-80
2021/08/09 19:45:46;;;;;;;;;;;19.60;99.90;;;18.52;66.61;96003.31;10303933;28;2278;-78
2021/08/09 19:50:48;;;;;;;;;;;19.50;99.90;;;18.45;67.60;96001.06;10310904;28;2428;-78
2021/08/09 19:55:51;;;;;;;;;;;19.50;99.90;;;18.31;68.88;96006.63;10298711;28;2404;-81
2021/08/09 20:00:54;;;;;;;;;;;19.40;99.90;;;18.21;69.90;96017.81;10298119;28;2316;-80
2021/08/09 20:05:57;;;;;;;;;;;19.30;99.90;;;18.15;70.64;96019.09;10296073;28;2304;-80
2021/08/09 20:11:00;;;;;;;;;;;19.20;99.90;;;18.35;70.68;96020.41;10303432;28;2258;-79
2021/08/09 20:16:02;;;;;;;;;;;19.20;99.90;;;18.41;70.24;96015.63;10298143;28;2345;-80
2021/08/09 20:21:05;;;;;;;;;;;19.30;99.90;;;18.45;70.77;96016.56;10279941;28;2363;-82
2021/08/09 20:26:08;;;;;;;;;;;19.30;99.90;;;18.45;70.92;96030.19;10289640;28;2405;-81
2021/08/09 20:31:11;;;;;;;;;;;19.40;99.90;;;18.45;71.01;96017.41;10275336;28;2391;-80
2021/08/09 20:36:14;;;;;;;;;;;19.50;99.90;;;18.35;71.60;96034.81;10288574;28;2271;-80
2021/08/09 20:41:16;;;;;;;;;;;19.40;99.90;;;18.23;72.39;96033.81;10288117;28;2307;-81
2021/08/09 20:46:19;;;;;;;;;;;19.30;99.90;;;18.12;72.81;96029.78;10277271;28;2221;-80
2021/08/09 20:51:22;;;;;;;;;;;19.20;99.90;;;17.94;73.27;96029.75;10275317;28;2383;-82
2021/08/09 20:56:25;;;;;;;;;;;19.00;99.90;;;17.94;73.63;96032.47;10294961;28;2298;-82
2021/08/09 21:01:27;;;;;;;;;;;18.90;99.90;;;17.81;74.11;96034.16;10287723;28;2382;-81
2021/08/09 21:06:33;;;;;;;;;;;18.90;99.90;;;17.77;74.73;96035.91;10291674;28;2364;-79
2021/08/09 21:11:36;;;;;;;;;;;18.80;99.90;;;17.74;75.03;96044.66;10283676;28;2364;-81
2021/08/09 21:16:39;;;;;;;;;;;18.70;99.90;;;17.72;75.30;96049.63;10290635;28;2385;-80
2021/08/09 21:21:41;;;;;;;;;;;18.70;99.90;;;17.66;75.63;96050.84;10281483;28;2397;-81
2021/08/09 21:26:44;;;;;;;;;;;18.70;99.90;;;17.76;75.29;96057.97;10299153;28;2292;-80
2021/08/09 21:31:47;;;;;;;;;;;18.70;99.90;;;17.85;74.92;96047.94;10290290;28;2314;-80
2021/08/09 21:36:49;;;;;;;;;;;18.70;99.90;;;17.84;75.51;96046.31;10288005;28;2568;-83
2021/08/09 21:41:52;;;;;;;;;;;18.80;99.90;;;17.74;75.85;96052.81;10283735;28;2385;-80
2021/08/09 21:46:55;;;;;;;;;;;18.70;99.90;;;17.79;75.62;96049.97;10287912;28;2348;-81
2021/08/09 21:51:57;;;;;;;;;;;18.70;99.90;;;17.90;75.16;96049.72;10292956;28;2318;-83
2021/08/09 21:57:03;;;;;;;;;;;18.70;99.90;;;17.85;75.84;96047.13;10307195;28;2268;-79
2021/08/09 22:02:06;;;;;;;;;;;18.80;99.90;;;17.81;76.05;96047.78;10293499;28;2210;-77
2021/08/09 22:07:09;;;;;;;;;;;18.80;99.90;;;17.68;77.01;96053.25;10281292;28;2433;-80
2021/08/09 22:12:11;;;;;;;;;;;18.70;99.90;;;17.56;77.88;96045.69;10286844;28;2378;-80
2021/08/09 22:17:18;;;;;;;;;;;18.60;99.90;;;17.53;78.12;96046.28;10297820;28;2331;-80
2021/08/09 22:22:21;;;;;;;;;;;18.50;99.90;;;17.38;78.78;96050.22;10300381;28;2351;-80
2021/08/09 22:27:23;;;;;;;;;;;18.40;99.90;;;17.20;79.37;96049.28;10312120;28;2361;-78
2021/08/09 22:32:26;;;;;;;;;;;18.30;99.90;;;17.06;80.20;96051.25;10291521;28;2213;-79
2021/08/09 22:37:29;;;;;;;;;;;18.20;99.90;;;17.11;80.27;96048.41;10293323;28;2223;-78
2021/08/09 22:42:31;;;;;;;;;;;18.10;99.90;;;17.24;79.33;96046.72;10295055;28;2445;-80
2021/08/09 22:47:36;;;;;;;;;;;18.10;99.90;;;17.24;79.24;96047.56;10285137;28;2291;-82
2021/08/09 22:52:39;;;;;;;;;;;18.20;99.90;;;17.23;79.39;96043.22;10296884;28;2314;-80
2021/08/09 22:57:41;;;;;;;;;;;18.20;99.90;;;17.34;78.53;96029.41;10304636;28;2260;-80
2021/08/09 23:02:44;;;;;;;;;;;18.20;99.90;;;17.32;79.27;96046.00;10315759;28;2348;-80
2021/08/09 23:07:49;;;;;;;;;;;18.20;99.90;;;17.36;78.26;96035.31;10304778;28;2062;-80
2021/08/09 23:12:52;;;;;;;;;;;18.20;99.90;;;17.34;78.94;96034.81;10298886;28;2091;-81